createdAt,value
2023-01-15T00:00:47.338Z,96.41
2023-01-15T00:01:47.336Z,96.20
2023-01-15T00:02:47.410Z,96.10
2023-01-15T00:03:47.368Z,96.10
2023-01-15T00:04:47.292Z,96.10
2023-01-15T00:05:47.278Z,95.90
2023-01-15T00:06:47.264Z,95.90
2023-01-15T00:07:47.271Z,95.94
2023-01-15T00:08:47.243Z,95.94
2023-01-15T00:09:47.256Z,96.04
2023-01-15T00:10:47.227Z,96.15
2023-01-15T00:11:47.204Z,96.35
2023-01-15T00:12:47.207Z,96.45
2023-01-15T00:13:47.223Z,96.56
2023-01-15T00:14:47.166Z,96.56
2023-01-15T00:15:47.172Z,96.56
2023-01-15T00:16:47.143Z,96.56
2023-01-15T00:17:47.129Z,96.66
2023-01-15T00:18:47.109Z,96.77
2023-01-15T00:19:47.098Z,96.77
2023-01-15T00:20:47.068Z,96.77
2023-01-15T00:21:47.060Z,96.77
2023-01-15T00:22:47.069Z,96.87
2023-01-15T00:23:47.039Z,96.87
2023-01-15T00:24:47.039Z,96.87
2023-01-15T00:25:47.018Z,96.77
2023-01-15T00:26:47.008Z,96.77
2023-01-15T00:27:47.010Z,96.87
2023-01-15T00:28:46.975Z,96.87
2023-01-15T00:29:47.002Z,96.97
2023-01-15T00:30:46.941Z,96.97
2023-01-15T00:31:46.961Z,96.97
2023-01-15T00:32:46.969Z,97.07
2023-01-15T00:33:46.959Z,96.97
2023-01-15T00:34:46.899Z,96.87
2023-01-15T00:35:46.878Z,96.77
2023-01-15T00:36:46.858Z,96.66
2023-01-15T00:37:46.871Z,96.66
2023-01-15T00:38:46.838Z,96.66
2023-01-15T00:39:46.841Z,96.77
2023-01-15T00:40:46.807Z,96.77
2023-01-15T00:41:46.800Z,96.87
2023-01-15T00:42:53.890Z,96.91
2023-01-15T00:43:47.782Z,97.02
2023-01-15T00:44:46.790Z,96.30
2023-01-15T00:45:46.749Z,95.37
2023-01-15T00:46:46.855Z,94.49
2023-01-15T00:47:46.739Z,93.57
2023-01-15T00:48:46.710Z,93.10
2023-01-15T00:49:46.688Z,92.17
2023-01-15T00:50:46.678Z,91.91
2023-01-15T00:51:46.668Z,92.21
2023-01-15T00:52:46.694Z,91.70
2023-01-15T00:53:46.650Z,91.13
2023-01-15T00:54:46.633Z,91.02
2023-01-15T00:55:46.628Z,91.44
2023-01-15T00:56:46.600Z,91.58
2023-01-15T00:57:46.599Z,91.27
2023-01-15T00:58:46.601Z,91.06
2023-01-15T00:59:46.595Z,92.10
2023-01-15T01:00:46.595Z,92.50
2023-01-15T01:01:46.644Z,91.72
2023-01-15T01:02:46.534Z,91.21
2023-01-15T01:03:46.541Z,91.83
2023-01-15T01:04:46.568Z,91.93
2023-01-15T01:05:46.529Z,92.55
2023-01-15T01:06:46.474Z,92.76
2023-01-15T01:07:46.459Z,92.65
2023-01-15T01:08:46.467Z,91.93
2023-01-15T01:09:46.465Z,91.83
2023-01-15T01:10:46.419Z,91.72
2023-01-15T01:11:46.433Z,91.83
2023-01-15T01:12:46.390Z,91.52
2023-01-15T01:13:46.406Z,91.62
2023-01-15T01:14:46.357Z,92.03
2023-01-15T01:15:46.348Z,92.65
2023-01-15T01:16:46.355Z,92.59
2023-01-15T01:17:46.327Z,91.66
2023-01-15T01:18:46.328Z,92.08
2023-01-15T01:19:46.293Z,92.49
2023-01-15T01:20:46.279Z,92.80
2023-01-15T01:21:46.277Z,92.08
2023-01-15T01:22:46.248Z,92.08
2023-01-15T01:23:46.289Z,92.59
2023-01-15T01:24:46.241Z,92.49
2023-01-15T01:25:46.210Z,92.69
2023-01-15T01:26:46.207Z,92.90
2023-01-15T01:27:46.199Z,93.01
2023-01-15T01:28:46.189Z,92.80
2023-01-15T01:29:46.167Z,92.80
2023-01-15T01:30:46.161Z,92.49
2023-01-15T01:31:46.189Z,92.59
2023-01-15T01:32:46.119Z,92.69
2023-01-15T01:33:46.128Z,92.90
2023-01-15T01:34:46.100Z,92.59
2023-01-15T01:35:46.098Z,92.38
2023-01-15T01:36:46.066Z,91.97
2023-01-15T01:37:46.071Z,91.50
2023-01-15T01:38:46.072Z,90.99
2023-01-15T01:39:46.038Z,91.60
2023-01-15T01:40:46.009Z,91.46
2023-01-15T01:41:45.999Z,91.50
2023-01-15T01:42:45.978Z,90.78
2023-01-15T01:43:45.989Z,90.88
2023-01-15T01:44:45.976Z,90.78
2023-01-15T01:45:45.994Z,90.67
2023-01-15T01:46:45.938Z,91.09
2023-01-15T01:47:45.921Z,91.30
2023-01-15T01:48:45.922Z,91.09
2023-01-15T01:49:45.888Z,90.92
2023-01-15T01:50:45.869Z,90.10
2023-01-15T01:51:45.882Z,90.61
2023-01-15T01:52:45.874Z,90.41
2023-01-15T01:53:45.859Z,90.82
2023-01-15T01:54:45.829Z,91.54
2023-01-15T01:55:45.807Z,91.44
2023-01-15T01:56:45.805Z,90.92
2023-01-15T01:57:45.784Z,90.86
2023-01-15T01:58:45.790Z,90.97
2023-01-15T01:59:45.760Z,91.28
2023-01-15T02:00:45.805Z,91.69
2023-01-15T02:01:45.816Z,92.31
2023-01-15T02:02:45.762Z,92.72
2023-01-15T02:03:45.730Z,92.61
2023-01-15T02:04:45.698Z,91.69
2023-01-15T02:05:45.679Z,92.00
2023-01-15T02:06:45.658Z,91.69
2023-01-15T02:07:45.650Z,91.38
2023-01-15T02:08:45.647Z,91.73
2023-01-15T02:09:45.640Z,91.83
2023-01-15T02:10:45.607Z,92.14
2023-01-15T02:11:45.624Z,91.73
2023-01-15T02:12:45.580Z,91.73
2023-01-15T02:13:45.589Z,91.83
2023-01-15T02:14:45.568Z,92.14
2023-01-15T02:15:45.540Z,91.94
2023-01-15T02:16:45.601Z,90.53
2023-01-15T02:17:45.527Z,90.53
2023-01-15T02:18:45.497Z,91.05
2023-01-15T02:19:45.510Z,91.05
2023-01-15T02:20:45.469Z,91.36
2023-01-15T02:21:45.469Z,90.12
2023-01-15T02:22:45.449Z,89.44
2023-01-15T02:23:45.439Z,89.34
2023-01-15T02:24:45.451Z,88.41
2023-01-15T02:25:45.408Z,88.10
2023-01-15T02:26:45.398Z,87.58
2023-01-15T02:27:45.388Z,87.48
2023-01-15T02:28:45.383Z,87.48
2023-01-15T02:29:45.374Z,87.89
2023-01-15T02:30:45.350Z,85.97
2023-01-15T02:31:45.362Z,86.49
2023-01-15T02:32:45.327Z,87.52
2023-01-15T02:33:45.298Z,88.24
2023-01-15T02:34:45.306Z,86.59
2023-01-15T02:35:45.289Z,86.90
2023-01-15T02:36:45.258Z,86.69
2023-01-15T02:37:45.249Z,86.83
2023-01-15T02:38:45.239Z,87.04
2023-01-15T02:39:45.238Z,87.56
2023-01-15T02:40:45.209Z,87.66
2023-01-15T02:41:45.197Z,88.28
2023-01-15T02:42:45.189Z,88.90
2023-01-15T02:43:45.169Z,87.76
2023-01-15T02:44:45.199Z,88.07
2023-01-15T02:45:45.151Z,88.59
2023-01-15T02:46:45.132Z,89.11
2023-01-15T02:47:45.116Z,89.11
2023-01-15T02:48:45.109Z,88.70
2023-01-15T02:49:45.122Z,88.80
2023-01-15T02:50:45.079Z,89.32
2023-01-15T02:51:45.074Z,90.20
2023-01-15T02:52:45.059Z,88.18
2023-01-15T02:53:45.039Z,87.76
2023-01-15T02:54:45.052Z,87.97
2023-01-15T02:55:45.020Z,88.65
2023-01-15T02:56:45.007Z,89.38
2023-01-15T02:57:44.997Z,90.00
2023-01-15T02:58:44.998Z,87.62
2023-01-15T02:59:44.979Z,87.35
2023-01-15T03:00:45.005Z,88.07
2023-01-15T03:01:45.077Z,87.25
2023-01-15T03:02:44.987Z,87.66
2023-01-15T03:03:44.913Z,88.65
2023-01-15T03:04:44.917Z,89.17
2023-01-15T03:05:44.889Z,89.28
2023-01-15T03:06:44.865Z,89.28
2023-01-15T03:07:44.857Z,89.17
2023-01-15T03:08:44.859Z,88.55
2023-01-15T03:09:44.847Z,87.62
2023-01-15T03:10:44.819Z,87.73
2023-01-15T03:11:44.814Z,87.25
2023-01-15T03:12:44.797Z,87.56
2023-01-15T03:13:44.783Z,87.56
2023-01-15T03:14:44.798Z,88.18
2023-01-15T03:15:44.756Z,87.46
2023-01-15T03:16:44.800Z,87.87
2023-01-15T03:17:44.728Z,87.76
2023-01-15T03:18:44.723Z,87.39
2023-01-15T03:19:44.770Z,87.91
2023-01-15T03:20:44.707Z,88.01
2023-01-15T03:21:44.687Z,88.43
2023-01-15T03:22:44.656Z,89.04
2023-01-15T03:23:44.656Z,89.46
2023-01-15T03:24:44.639Z,89.46
2023-01-15T03:25:44.649Z,89.83
2023-01-15T03:26:44.617Z,88.49
2023-01-15T03:27:44.616Z,87.70
2023-01-15T03:28:44.609Z,88.22
2023-01-15T03:29:44.583Z,88.32
2023-01-15T03:30:44.663Z,87.70
2023-01-15T03:31:44.550Z,88.01
2023-01-15T03:32:44.537Z,88.01
2023-01-15T03:33:44.514Z,88.32
2023-01-15T03:34:44.506Z,88.53
2023-01-15T03:35:44.528Z,88.84
2023-01-15T03:36:44.489Z,87.81
2023-01-15T03:37:44.476Z,88.36
2023-01-15T03:38:44.457Z,88.78
2023-01-15T03:39:44.457Z,88.88
2023-01-15T03:40:44.448Z,89.40
2023-01-15T03:41:44.455Z,90.50
2023-01-15T03:42:44.423Z,89.56
2023-01-15T03:43:44.399Z,89.36
2023-01-15T03:44:44.385Z,89.42
2023-01-15T03:45:44.413Z,89.04
2023-01-15T03:46:44.358Z,88.94
2023-01-15T03:47:44.344Z,87.81
2023-01-15T03:48:44.326Z,88.22
2023-01-15T03:49:44.322Z,88.32
2023-01-15T03:50:44.315Z,88.32
2023-01-15T03:51:44.287Z,88.74
2023-01-15T03:52:44.283Z,89.11
2023-01-15T03:53:44.318Z,89.01
2023-01-15T03:54:44.246Z,89.22
2023-01-15T03:55:44.271Z,89.67
2023-01-15T03:56:44.227Z,89.32
2023-01-15T03:57:44.217Z,89.22
2023-01-15T03:58:44.205Z,89.11
2023-01-15T03:59:44.187Z,89.01
2023-01-15T04:00:44.209Z,89.22
2023-01-15T04:01:44.284Z,89.04
2023-01-15T04:02:44.154Z,89.42
2023-01-15T04:03:44.153Z,89.11
2023-01-15T04:04:44.117Z,88.70
2023-01-15T04:05:44.108Z,88.70
2023-01-15T04:06:44.115Z,89.01
2023-01-15T04:07:44.093Z,89.32
2023-01-15T04:08:44.086Z,89.62
2023-01-15T04:09:44.055Z,89.83
2023-01-15T04:10:44.049Z,89.73
2023-01-15T04:11:44.049Z,89.32
2023-01-15T04:12:44.020Z,89.01
2023-01-15T04:13:44.029Z,88.39
2023-01-15T04:14:43.986Z,88.34
2023-01-15T04:15:44.050Z,88.34
2023-01-15T04:16:44.005Z,88.59
2023-01-15T04:17:43.968Z,89.42
2023-01-15T04:19:39.659Z,89.32
2023-01-15T04:20:39.667Z,89.73
2023-01-15T04:21:39.665Z,88.80
2023-01-15T04:22:39.785Z,88.80
2023-01-15T04:23:39.601Z,89.01
2023-01-15T04:24:39.609Z,88.70
2023-01-15T04:25:39.588Z,88.28
2023-01-15T04:26:39.579Z,88.18
2023-01-15T04:27:39.573Z,88.18
2023-01-15T04:28:39.564Z,88.18
2023-01-15T04:29:39.539Z,88.49
2023-01-15T04:30:39.618Z,88.80
2023-01-15T04:31:39.522Z,89.52
2023-01-15T04:32:39.481Z,88.64
2023-01-15T04:33:39.510Z,88.84
2023-01-15T04:34:39.459Z,89.56
2023-01-15T04:35:39.449Z,89.77
2023-01-15T04:36:39.455Z,89.15
2023-01-15T04:37:39.450Z,89.11
2023-01-15T04:38:39.454Z,89.22
2023-01-15T04:39:39.412Z,89.94
2023-01-15T04:40:39.389Z,89.94
2023-01-15T04:41:39.380Z,89.94
2023-01-15T04:42:39.371Z,90.04
2023-01-15T04:43:39.380Z,89.22
2023-01-15T04:44:39.337Z,88.59
2023-01-15T04:45:39.339Z,87.87
2023-01-15T04:46:39.364Z,87.46
2023-01-15T04:47:39.307Z,87.87
2023-01-15T04:48:39.310Z,87.46
2023-01-15T04:49:39.294Z,87.39
2023-01-15T04:50:40.478Z,87.70
2023-01-15T04:51:39.252Z,87.81
2023-01-15T04:52:39.235Z,87.91
2023-01-15T04:53:39.233Z,88.18
2023-01-15T04:54:39.306Z,88.39
2023-01-15T04:55:39.244Z,88.59
2023-01-15T04:56:39.184Z,88.49
2023-01-15T04:57:39.165Z,87.97
2023-01-15T04:58:39.188Z,87.76
2023-01-15T04:59:39.148Z,87.87
2023-01-15T05:00:39.128Z,87.66
2023-01-15T05:01:39.231Z,87.35
2023-01-15T05:02:39.177Z,87.46
2023-01-15T05:03:39.121Z,87.87
2023-01-15T05:04:39.124Z,88.39
2023-01-15T05:05:39.057Z,89.22
2023-01-15T05:06:39.064Z,89.52
2023-01-15T05:07:39.041Z,89.15
2023-01-15T05:08:39.039Z,88.64
2023-01-15T05:09:39.015Z,88.32
2023-01-15T05:10:38.998Z,88.32
2023-01-15T05:11:38.986Z,88.84
2023-01-15T05:12:38.975Z,88.67
2023-01-15T05:13:39.007Z,88.57
2023-01-15T05:14:38.937Z,88.36
2023-01-15T05:15:38.953Z,89.19
2023-01-15T05:16:38.927Z,89.50
2023-01-15T05:17:38.916Z,90.02
2023-01-15T05:18:38.921Z,90.12
2023-01-15T05:19:38.889Z,90.23
2023-01-15T05:20:38.875Z,89.40
2023-01-15T05:21:38.868Z,88.98
2023-01-15T05:22:38.852Z,88.98
2023-01-15T05:23:38.861Z,89.15
2023-01-15T05:24:38.829Z,89.25
2023-01-15T05:25:38.848Z,89.56
2023-01-15T05:26:38.828Z,89.15
2023-01-15T05:27:38.788Z,88.64
2023-01-15T05:28:38.795Z,88.49
2023-01-15T05:29:38.769Z,88.28
2023-01-15T05:30:38.769Z,88.07
2023-01-15T05:31:38.737Z,87.76
2023-01-15T05:32:38.724Z,87.66
2023-01-15T05:33:38.786Z,87.97
2023-01-15T05:34:38.698Z,88.49
2023-01-15T05:35:38.703Z,88.80
2023-01-15T05:36:38.686Z,88.94
2023-01-15T05:37:38.665Z,89.15
2023-01-15T05:38:38.648Z,89.25
2023-01-15T05:39:38.676Z,89.56
2023-01-15T05:40:38.627Z,89.46
2023-01-15T05:41:38.608Z,89.42
2023-01-15T05:42:38.618Z,89.77
2023-01-15T05:43:38.587Z,89.36
2023-01-15T05:44:38.575Z,89.25
2023-01-15T05:45:38.557Z,89.36
2023-01-15T05:46:38.578Z,89.42
2023-01-15T05:47:38.527Z,89.52
2023-01-15T05:48:38.580Z,89.62
2023-01-15T05:49:38.529Z,89.42
2023-01-15T05:50:38.487Z,89.11
2023-01-15T05:51:38.478Z,89.01
2023-01-15T05:52:38.467Z,88.90
2023-01-15T05:53:38.458Z,88.70
2023-01-15T05:54:38.589Z,88.70
2023-01-15T05:55:38.432Z,88.59
2023-01-15T05:56:38.425Z,88.39
2023-01-15T05:57:38.407Z,88.49
2023-01-15T05:58:38.386Z,88.39
2023-01-15T05:59:38.398Z,88.49
2023-01-15T06:00:38.363Z,88.34
2023-01-15T06:01:38.347Z,88.24
2023-01-15T06:02:38.427Z,88.14
2023-01-15T06:03:38.414Z,88.24
2023-01-15T06:04:38.326Z,88.34
2023-01-15T06:05:38.297Z,88.55
2023-01-15T06:06:38.338Z,88.65
2023-01-15T06:07:38.298Z,88.80
2023-01-15T06:08:38.255Z,89.32
2023-01-15T06:09:38.273Z,89.52
2023-01-15T06:10:38.238Z,89.62
2023-01-15T06:11:38.235Z,89.62
2023-01-15T06:12:38.208Z,89.83
2023-01-15T06:13:38.196Z,90.14
2023-01-15T06:14:38.194Z,90.45
2023-01-15T06:15:38.214Z,90.45
2023-01-15T06:16:40.861Z,90.66
2023-01-15T06:17:38.147Z,90.56
2023-01-15T06:18:38.127Z,90.35
2023-01-15T06:19:38.295Z,90.25
2023-01-15T06:20:38.109Z,90.14
2023-01-15T06:21:38.105Z,90.14
2023-01-15T06:22:38.078Z,90.14
2023-01-15T06:23:38.079Z,90.04
2023-01-15T06:24:38.070Z,89.94
2023-01-15T06:25:38.052Z,89.83
2023-01-15T06:26:38.036Z,89.83
2023-01-15T06:27:38.027Z,89.52
2023-01-15T06:28:38.016Z,89.28
2023-01-15T06:29:38.007Z,88.96
2023-01-15T06:30:39.396Z,88.65
2023-01-15T06:31:38.054Z,88.76
2023-01-15T06:32:37.951Z,88.76
2023-01-15T06:33:37.948Z,88.65
2023-01-15T06:34:37.934Z,88.45
2023-01-15T06:35:37.916Z,88.34
2023-01-15T06:36:37.897Z,88.34
2023-01-15T06:37:37.886Z,88.24
2023-01-15T06:38:37.888Z,88.04
2023-01-15T06:39:37.890Z,88.04
2023-01-15T06:40:37.844Z,88.04
2023-01-15T06:41:37.862Z,87.52
2023-01-15T06:42:37.823Z,87.10
2023-01-15T06:43:37.816Z,86.79
2023-01-15T06:44:37.820Z,86.28
2023-01-15T06:45:37.786Z,86.18
2023-01-15T06:46:37.814Z,86.38
2023-01-15T06:47:37.758Z,86.42
2023-01-15T06:48:37.749Z,86.21
2023-01-15T06:49:37.772Z,86.83
2023-01-15T06:50:37.716Z,87.04
2023-01-15T06:51:37.711Z,86.94
2023-01-15T06:52:37.687Z,86.94
2023-01-15T06:53:37.680Z,87.15
2023-01-15T06:54:37.677Z,87.46
2023-01-15T06:55:37.689Z,87.46
2023-01-15T06:56:37.672Z,87.15
2023-01-15T06:57:37.631Z,87.25
2023-01-15T06:58:37.624Z,87.35
2023-01-15T06:59:37.607Z,87.46
2023-01-15T07:00:37.654Z,87.76
2023-01-15T07:01:37.615Z,88.07
2023-01-15T07:02:37.567Z,88.18
2023-01-15T07:03:37.604Z,88.18
2023-01-15T07:04:37.539Z,88.28
2023-01-15T07:05:37.551Z,88.18
2023-01-15T07:06:37.522Z,87.97
2023-01-15T07:07:37.511Z,88.18
2023-01-15T07:08:37.485Z,88.07
2023-01-15T07:09:37.502Z,88.18
2023-01-15T07:10:37.477Z,88.49
2023-01-15T07:11:37.447Z,88.49
2023-01-15T07:12:37.436Z,88.18
2023-01-15T07:13:37.448Z,87.97
2023-01-15T07:14:37.419Z,88.07
2023-01-15T07:15:37.496Z,87.76
2023-01-15T07:16:37.496Z,87.97
2023-01-15T07:17:37.376Z,88.39
2023-01-15T07:18:37.396Z,88.59
2023-01-15T07:19:37.474Z,88.80
2023-01-15T07:20:37.357Z,88.90
2023-01-15T07:21:37.342Z,88.90
2023-01-15T07:22:37.375Z,88.80
2023-01-15T07:23:37.300Z,88.80
2023-01-15T07:24:37.278Z,88.59
2023-01-15T07:25:37.296Z,88.39
2023-01-15T07:26:37.267Z,88.59
2023-01-15T07:27:37.288Z,88.39
2023-01-15T07:28:37.260Z,88.39
2023-01-15T07:29:37.235Z,88.70
2023-01-15T07:30:37.266Z,88.80
2023-01-15T07:31:37.428Z,88.80
2023-01-15T07:32:37.194Z,88.70
2023-01-15T07:33:37.216Z,88.90
2023-01-15T07:34:37.246Z,89.01
2023-01-15T07:35:37.195Z,89.11
2023-01-15T07:36:37.202Z,89.01
2023-01-15T07:37:37.176Z,89.11
2023-01-15T07:38:37.132Z,89.01
2023-01-15T07:39:37.124Z,89.01
2023-01-15T07:40:37.190Z,89.11
2023-01-15T07:41:37.193Z,89.11
2023-01-15T07:42:37.215Z,89.01
2023-01-15T07:43:37.083Z,89.01
2023-01-15T07:44:37.073Z,89.11
2023-01-15T07:45:37.155Z,89.11
2023-01-15T07:46:37.027Z,89.01
2023-01-15T07:47:37.103Z,89.01
2023-01-15T07:48:37.000Z,89.01
2023-01-15T07:49:36.987Z,89.01
2023-01-15T07:50:36.990Z,89.01
2023-01-15T07:51:36.979Z,89.22
2023-01-15T07:52:36.952Z,89.52
2023-01-15T07:53:36.915Z,89.62
2023-01-15T07:54:36.904Z,89.83
2023-01-15T07:55:36.887Z,90.39
2023-01-15T07:56:36.916Z,90.45
2023-01-15T07:57:36.893Z,90.29
2023-01-15T07:58:36.908Z,90.60
2023-01-15T07:59:36.846Z,90.91
2023-01-15T08:00:36.819Z,91.01
2023-01-15T08:01:36.927Z,91.11
2023-01-15T08:02:36.799Z,91.22
2023-01-15T08:03:36.794Z,91.11
2023-01-15T08:04:36.772Z,91.32
2023-01-15T08:05:36.773Z,91.53
2023-01-15T08:06:36.758Z,91.63
2023-01-15T08:07:36.727Z,91.74
2023-01-15T08:08:36.715Z,91.84
2023-01-15T08:09:36.706Z,91.84
2023-01-15T08:10:36.689Z,91.84
2023-01-15T08:11:36.695Z,91.84
2023-01-15T08:12:36.666Z,92.15
2023-01-15T08:13:36.745Z,92.25
2023-01-15T08:14:36.636Z,92.25
2023-01-15T08:15:36.635Z,92.25
2023-01-15T08:16:36.668Z,92.57
2023-01-15T08:17:36.603Z,92.57
2023-01-15T08:18:36.643Z,92.57
2023-01-15T08:19:36.572Z,92.67
2023-01-15T08:20:36.558Z,92.87
2023-01-15T08:21:36.584Z,93.08
2023-01-15T08:22:36.534Z,93.18
2023-01-15T08:23:36.514Z,93.29
2023-01-15T08:24:36.527Z,93.39
2023-01-15T08:25:36.494Z,93.39
2023-01-15T08:26:36.496Z,93.39
2023-01-15T08:27:36.483Z,93.39
2023-01-15T08:28:36.457Z,93.18
2023-01-15T08:29:36.438Z,93.08
2023-01-15T08:30:36.442Z,92.97
2023-01-15T08:31:36.470Z,92.77
2023-01-15T08:32:36.453Z,92.57
2023-01-15T08:33:36.384Z,92.36
2023-01-15T08:34:36.388Z,92.25
2023-01-15T08:35:36.368Z,92.15
2023-01-15T08:36:36.357Z,92.11
2023-01-15T08:37:36.362Z,91.59
2023-01-15T08:38:36.325Z,91.28
2023-01-15T08:39:36.316Z,91.07
2023-01-15T08:40:36.354Z,90.77
2023-01-15T08:41:36.292Z,90.66
2023-01-15T08:42:36.318Z,90.66
2023-01-15T08:43:36.285Z,90.77
2023-01-15T08:44:36.253Z,90.87
2023-01-15T08:45:36.312Z,90.83
2023-01-15T08:46:36.253Z,90.41
2023-01-15T08:47:36.235Z,90.31
2023-01-15T08:48:36.227Z,90.10
2023-01-15T08:49:36.185Z,90.00
2023-01-15T08:50:36.185Z,89.89
2023-01-15T08:51:36.159Z,89.75
2023-01-15T08:52:36.163Z,89.54
2023-01-15T08:53:36.138Z,88.41
2023-01-15T08:54:36.129Z,88.31
2023-01-15T08:55:36.105Z,88.31
2023-01-15T08:56:36.115Z,88.31
2023-01-15T08:57:36.105Z,90.89
2023-01-15T08:58:36.064Z,99.22
2023-01-15T08:59:36.056Z,99.99
2023-01-15T09:00:36.056Z,99.99
2023-01-15T09:01:36.195Z,99.99
2023-01-15T09:02:36.037Z,99.10
2023-01-15T09:03:36.027Z,93.44
2023-01-15T09:04:36.010Z,85.47
2023-01-15T09:05:35.979Z,81.70
2023-01-15T09:06:35.974Z,81.63
2023-01-15T09:07:36.031Z,80.75
2023-01-15T09:08:35.955Z,81.57
2023-01-15T09:09:35.935Z,82.23
2023-01-15T09:10:35.915Z,82.68
2023-01-15T09:11:35.903Z,83.03
2023-01-15T09:12:35.896Z,83.75
2023-01-15T09:13:35.923Z,84.61
2023-01-15T09:14:58.947Z,85.02
2023-01-15T09:15:36.870Z,85.44
2023-01-15T09:16:35.871Z,85.27
2023-01-15T09:17:35.838Z,84.86
2023-01-15T09:18:35.848Z,84.55
2023-01-15T09:19:35.805Z,84.38
2023-01-15T09:20:35.800Z,84.28
2023-01-15T09:21:35.775Z,84.38
2023-01-15T09:22:35.765Z,84.59
2023-01-15T09:23:35.782Z,85.52
2023-01-15T09:24:35.774Z,83.65
2023-01-15T09:25:35.724Z,83.86
2023-01-15T09:26:35.714Z,84.89
2023-01-15T09:27:35.697Z,85.21
2023-01-15T09:28:35.705Z,85.41
2023-01-15T09:29:35.675Z,85.41
2023-01-15T09:30:35.695Z,84.73
2023-01-15T09:31:35.649Z,84.73
2023-01-15T09:32:35.645Z,85.45
2023-01-15T09:33:35.634Z,85.45
2023-01-15T09:34:35.615Z,85.00
2023-01-15T09:35:35.591Z,84.48
2023-01-15T09:36:35.584Z,83.39
2023-01-15T09:37:35.564Z,84.00
2023-01-15T09:38:35.542Z,84.31
2023-01-15T09:39:35.552Z,83.90
2023-01-15T09:40:35.535Z,84.52
2023-01-15T09:41:35.510Z,84.79
2023-01-15T09:42:35.495Z,84.69
2023-01-15T09:43:38.832Z,82.21
2023-01-15T09:44:36.488Z,82.21
2023-01-15T09:45:35.456Z,82.83
2023-01-15T09:46:35.443Z,83.04
2023-01-15T09:47:35.432Z,82.73
2023-01-15T09:48:35.436Z,83.25
2023-01-15T09:49:35.473Z,84.38
2023-01-15T09:50:35.405Z,84.17
2023-01-15T09:51:35.395Z,83.14
2023-01-15T09:52:35.383Z,82.93
2023-01-15T09:53:35.366Z,83.25
2023-01-15T09:54:35.364Z,83.25
2023-01-15T09:55:35.332Z,83.55
2023-01-15T09:56:35.351Z,83.34
2023-01-15T09:57:35.315Z,82.25
2023-01-15T09:58:35.363Z,81.11
2023-01-15T09:59:35.294Z,81.21
2023-01-15T10:00:35.262Z,81.84
2023-01-15T10:01:35.316Z,82.45
2023-01-15T10:02:35.243Z,82.97
2023-01-15T10:03:35.309Z,83.25
2023-01-15T10:04:35.345Z,82.73
2023-01-15T10:05:35.207Z,82.00
2023-01-15T10:06:35.198Z,82.00
2023-01-15T10:07:35.172Z,81.49
2023-01-15T10:08:35.170Z,81.18
2023-01-15T10:09:35.175Z,82.10
2023-01-15T10:10:35.133Z,82.62
2023-01-15T10:11:35.123Z,81.80
2023-01-15T10:12:35.114Z,81.80
2023-01-15T10:13:35.092Z,81.80
2023-01-15T10:14:35.130Z,81.01
2023-01-15T10:15:35.096Z,82.04
2023-01-15T10:16:35.090Z,82.56
2023-01-15T10:17:35.045Z,81.73
2023-01-15T10:18:35.045Z,80.49
2023-01-15T10:19:44.451Z,80.80
2023-01-15T10:20:36.011Z,80.90
2023-01-15T10:21:35.006Z,81.42
2023-01-15T10:22:34.986Z,81.28
2023-01-15T10:23:34.987Z,81.07
2023-01-15T10:24:35.000Z,81.70
2023-01-15T10:25:34.963Z,81.90
2023-01-15T10:26:34.943Z,82.52
2023-01-15T10:27:34.942Z,81.80
2023-01-15T10:28:34.903Z,81.07
2023-01-15T10:29:34.893Z,80.04
2023-01-15T10:30:34.903Z,79.87
2023-01-15T10:31:34.873Z,80.60
2023-01-15T10:32:34.853Z,81.01
2023-01-15T10:33:34.835Z,81.52
2023-01-15T10:34:34.836Z,82.04
2023-01-15T10:35:34.851Z,82.31
2023-01-15T10:36:34.803Z,81.84
2023-01-15T10:37:34.804Z,81.07
2023-01-15T10:38:34.787Z,80.76
2023-01-15T10:39:34.771Z,80.66
2023-01-15T10:40:34.770Z,80.87
2023-01-15T10:41:34.742Z,81.49
2023-01-15T10:42:34.724Z,80.87
2023-01-15T10:43:34.706Z,81.07
2023-01-15T10:44:34.744Z,80.56
2023-01-15T10:45:34.723Z,80.25
2023-01-15T10:46:34.731Z,80.66
2023-01-15T10:47:34.661Z,80.15
2023-01-15T10:48:34.656Z,79.94
2023-01-15T10:49:34.634Z,80.56
2023-01-15T10:50:34.640Z,80.66
2023-01-15T10:51:34.602Z,80.32
2023-01-15T10:52:34.603Z,80.11
2023-01-15T10:53:34.602Z,80.48
2023-01-15T10:54:34.570Z,80.38
2023-01-15T10:55:34.572Z,79.86
2023-01-15T10:56:34.552Z,80.07
2023-01-15T10:57:34.523Z,80.28
2023-01-15T10:58:34.514Z,81.21
2023-01-15T10:59:34.503Z,81.51
2023-01-15T11:00:34.502Z,81.31
2023-01-15T11:01:34.537Z,80.90
2023-01-15T11:02:34.640Z,79.45
2023-01-15T11:03:34.461Z,79.86
2023-01-15T11:04:34.442Z,80.38
2023-01-15T11:05:34.444Z,79.83
2023-01-15T11:06:34.428Z,79.93
2023-01-15T11:07:34.430Z,79.21
2023-01-15T11:09:07.369Z,79.00
2023-01-15T11:09:35.382Z,78.90
2023-01-15T11:10:34.363Z,77.97
2023-01-15T11:11:34.364Z,77.08
2023-01-15T11:12:34.344Z,78.52
2023-01-15T11:13:34.313Z,78.52
2023-01-15T11:14:34.321Z,78.42
2023-01-15T11:15:34.374Z,79.25
2023-01-15T11:16:34.311Z,79.14
2023-01-15T11:17:34.275Z,79.14
2023-01-15T11:18:34.262Z,78.31
2023-01-15T11:19:34.236Z,77.70
2023-01-15T11:20:34.231Z,77.91
2023-01-15T11:21:34.243Z,79.04
2023-01-15T11:22:34.222Z,78.38
2023-01-15T11:23:34.402Z,78.28
2023-01-15T11:24:34.242Z,78.28
2023-01-15T11:25:34.203Z,77.66
2023-01-15T11:26:34.170Z,77.56
2023-01-15T11:27:34.139Z,77.15
2023-01-15T11:28:34.138Z,86.70
2023-01-15T11:29:34.142Z,92.76
2023-01-15T11:30:34.119Z,83.04
2023-01-15T11:31:34.103Z,75.42
2023-01-15T11:32:34.082Z,73.71
2023-01-15T11:33:34.064Z,73.81
2023-01-15T11:34:34.051Z,74.26
2023-01-15T11:35:34.060Z,74.50
2023-01-15T11:36:34.042Z,74.60
2023-01-15T11:37:34.021Z,75.67
2023-01-15T11:38:34.011Z,76.18
2023-01-15T11:39:33.973Z,76.76
2023-01-15T11:40:33.977Z,76.66
2023-01-15T11:41:34.005Z,77.28
2023-01-15T11:42:33.962Z,77.90
2023-01-15T11:43:34.784Z,74.60
2023-01-15T11:44:33.926Z,75.12
2023-01-15T11:45:33.907Z,75.70
2023-01-15T11:46:34.014Z,76.53
2023-01-15T11:47:33.881Z,75.90
2023-01-15T11:48:33.872Z,74.46
2023-01-15T11:49:33.952Z,74.05
2023-01-15T11:50:33.832Z,73.85
2023-01-15T11:51:33.839Z,75.35
2023-01-15T11:52:33.802Z,76.21
2023-01-15T11:53:33.832Z,73.43
2023-01-15T11:54:33.791Z,74.16
2023-01-15T11:55:33.772Z,73.64
2023-01-15T11:56:33.825Z,73.54
2023-01-15T11:57:33.819Z,72.61
2023-01-15T11:58:33.736Z,73.30
2023-01-15T11:59:33.723Z,73.19
2023-01-15T12:00:33.712Z,72.47
2023-01-15T12:01:33.822Z,72.37
2023-01-15T12:02:33.693Z,71.96
2023-01-15T12:03:33.726Z,71.44
2023-01-15T12:04:33.720Z,72.06
2023-01-15T12:05:33.631Z,71.86
2023-01-15T12:06:33.680Z,72.16
2023-01-15T12:07:33.623Z,70.00
2023-01-15T12:08:33.647Z,71.27
2023-01-15T12:09:33.676Z,71.58
2023-01-15T12:10:33.562Z,72.13
2023-01-15T12:11:33.544Z,71.00
2023-01-15T12:12:33.572Z,71.82
2023-01-15T12:13:33.523Z,71.61
2023-01-15T12:14:33.518Z,71.69
2023-01-15T12:15:34.321Z,71.17
2023-01-15T12:16:33.511Z,70.76
2023-01-15T12:17:33.535Z,69.73
2023-01-15T12:18:33.586Z,70.14
2023-01-15T12:19:34.408Z,71.37
2023-01-15T12:20:33.484Z,69.31
2023-01-15T12:21:33.539Z,70.65
2023-01-15T12:22:34.315Z,70.14
2023-01-15T12:23:34.462Z,70.68
2023-01-15T12:24:34.391Z,70.58
2023-01-15T12:25:33.404Z,70.89
2023-01-15T12:26:33.360Z,71.10
2023-01-15T12:27:33.373Z,71.30
2023-01-15T12:28:33.331Z,70.24
2023-01-15T12:29:33.326Z,69.93
2023-01-15T12:30:33.324Z,70.93
2023-01-15T12:31:33.528Z,70.21
2023-01-15T12:32:33.308Z,70.10
2023-01-15T12:33:33.274Z,69.59
2023-01-15T12:34:33.256Z,68.77
2023-01-15T12:35:33.232Z,68.63
2023-01-15T12:36:33.217Z,69.04
2023-01-15T12:37:33.234Z,69.90
2023-01-15T12:38:33.205Z,68.94
2023-01-15T12:39:33.175Z,68.46
2023-01-15T12:40:33.172Z,69.07
2023-01-15T12:41:33.163Z,68.15
2023-01-15T12:42:33.143Z,68.05
2023-01-15T12:43:33.274Z,67.84
2023-01-15T12:44:33.148Z,68.05
2023-01-15T12:45:33.105Z,69.07
2023-01-15T12:46:33.108Z,70.00
2023-01-15T12:47:33.096Z,69.18
2023-01-15T12:48:33.363Z,70.21
2023-01-15T12:49:33.043Z,71.24
2023-01-15T12:50:33.052Z,69.90
2023-01-15T12:51:33.046Z,69.79
2023-01-15T12:52:33.024Z,67.94
2023-01-15T12:53:33.032Z,67.33